Terminal Aerodrome Forecast
Issued by NWS Wichita, KS

Home | Current Version | Previous Version | Text Only | Print | Product List | Glossary Off
Versions: 1 2 3 4 5 6 7 8 9 10 11 12 13 14 15 16 17 18 19 20

656
FTUS43 KICT 190520
TAFICT
TAF
KICT 190520Z 1906/2006 13012G18KT P6SM -SHRA VCTS SCT060CB OVC250
      TEMPO 1906/1908 4SM TSRA SCT025 OVC040CB
     FM190900 10010KT P6SM BKN090
     FM191500 15013KT P6SM SCT100
     FM191800 19015G22KT P6SM SCT050
     FM192200 20015G22KT P6SM VCTS BKN050CB
     FM200300 32012KT P6SM BKN140=

USA.gov is the U.S. government's official web portal to all federal, state and local government web resources and services.